Sunfield, Michigan
Current Conditions -  °F | °C
As of 9:54 PM on Wednesday 22 Oct 2014 (Local Time) from KY70 Reporting Station
Overcast Overcast  
Wind Chill: 42°   Ceiling: 1800
Heat Index: 42°   Visibility: 10mi
Dew Point: 37°   Wind: 3mph
Humidity: 83%   Direction: 90°E
Pressure: 30.29"   Gusts: NA
Location:  42.76°N, 84.99°W
Report Text: KY70 230154Z AUTO 09003KT 10SM OVC018 06/03 A3029 RMK AO2 T00560030
Loading
Personal Weather Stations






























Interactive Weather Map
Tropical Storm Tracking
New forecast layout! Learn more

10-Day Weather Forecast

Advertisements
Track Severe Weather on mobile